createdAt,value
2023-03-24T00:00:02.054Z,9.00
2023-03-24T00:02:37.840Z,9.00
2023-03-24T00:05:08.999Z,8.90
2023-03-24T00:07:39.957Z,9.00
2023-03-24T00:10:16.627Z,9.00
2023-03-24T00:12:46.723Z,9.00
2023-03-24T00:15:19.184Z,9.00
2023-03-24T00:17:50.777Z,9.00
2023-03-24T00:20:23.399Z,9.00
2023-03-24T00:22:57.238Z,9.00
2023-03-24T00:25:34.103Z,9.00
2023-03-24T00:28:06.024Z,9.10
2023-03-24T00:30:37.744Z,9.00
2023-03-24T00:33:07.831Z,9.00
2023-03-24T00:35:39.548Z,9.00
2023-03-24T00:38:09.426Z,9.10
2023-03-24T00:40:45.354Z,8.90
2023-03-24T00:43:16.218Z,8.90
2023-03-24T00:45:47.111Z,8.90
2023-03-24T00:48:18.108Z,9.00
2023-03-24T00:50:49.839Z,9.10
2023-03-24T00:53:23.308Z,8.90
2023-03-24T00:55:56.507Z,8.90
2023-03-24T00:58:26.406Z,8.80
2023-03-24T01:00:59.162Z,8.90
2023-03-24T01:03:29.802Z,8.80
2023-03-24T01:06:05.162Z,8.90
2023-03-24T01:08:35.017Z,9.00
2023-03-24T01:11:09.294Z,8.80
2023-03-24T01:13:39.893Z,8.80
2023-03-24T01:16:11.120Z,8.90
2023-03-24T01:18:42.482Z,8.80
2023-03-24T01:21:14.569Z,8.80
2023-03-24T01:23:44.835Z,8.80
2023-03-24T01:26:18.447Z,8.80
2023-03-24T01:28:48.460Z,8.80
2023-03-24T01:31:18.819Z,8.90
2023-03-24T01:33:48.882Z,8.90
2023-03-24T01:36:19.201Z,8.80
2023-03-24T01:38:49.244Z,8.80
2023-03-24T01:41:22.174Z,8.80
2023-03-24T01:43:52.081Z,8.90
2023-03-24T01:46:23.871Z,8.90
2023-03-24T01:48:57.011Z,8.80
2023-03-24T01:51:31.180Z,8.90
2023-03-24T01:54:04.056Z,8.90
2023-03-24T01:56:41.359Z,9.10
2023-03-24T01:59:13.784Z,9.00
2023-03-24T02:01:49.452Z,9.00
2023-03-24T02:04:41.390Z,8.90
2023-03-24T02:07:16.837Z,8.90
2023-03-24T02:09:46.690Z,8.90
2023-03-24T02:12:19.126Z,9.00
2023-03-24T02:14:49.320Z,9.00
2023-03-24T02:17:42.886Z,9.00
2023-03-24T02:20:38.987Z,9.10
2023-03-24T02:23:54.263Z,9.10
2023-03-24T02:26:50.925Z,9.10
2023-03-24T02:29:53.754Z,9.10
2023-03-24T02:33:01.332Z,9.30
2023-03-24T02:35:55.695Z,9.30
2023-03-24T02:39:04.700Z,9.20
2023-03-24T02:41:45.779Z,9.20
2023-03-24T02:44:23.463Z,9.20
2023-03-24T02:46:58.876Z,9.20
2023-03-24T02:49:33.181Z,9.20
2023-03-24T02:52:11.322Z,9.20
2023-03-24T02:54:49.110Z,9.20
2023-03-24T02:57:27.274Z,9.20
2023-03-24T03:00:14.573Z,9.30
2023-03-24T03:03:12.700Z,9.30
2023-03-24T03:05:47.698Z,9.30
2023-03-24T03:08:21.305Z,9.20
2023-03-24T03:10:54.743Z,9.20
2023-03-24T03:13:31.326Z,9.20
2023-03-24T03:16:06.937Z,9.20
2023-03-24T03:18:43.541Z,9.30
2023-03-24T03:21:18.481Z,9.20
2023-03-24T03:23:57.238Z,9.20
2023-03-24T03:26:32.949Z,9.20
2023-03-24T03:29:13.281Z,9.20
2023-03-24T03:31:50.033Z,9.20
2023-03-24T03:34:28.766Z,9.20
2023-03-24T03:37:07.884Z,9.20
2023-03-24T03:39:43.679Z,9.40
2023-03-24T03:42:15.517Z,9.10
2023-03-24T03:44:48.356Z,9.40
2023-03-24T03:47:19.165Z,9.30
2023-03-24T03:49:49.755Z,9.30
2023-03-24T03:52:20.552Z,8.90
2023-03-24T03:54:56.016Z,9.10
2023-03-24T03:57:26.657Z,9.20
2023-03-24T04:00:20.555Z,9.10
2023-03-24T04:03:37.474Z,9.20
2023-03-24T04:06:16.993Z,9.10
2023-03-24T04:08:52.134Z,9.30
2023-03-24T04:11:43.826Z,9.30
2023-03-24T04:14:56.227Z,9.10
2023-03-24T04:18:02.488Z,9.10
2023-03-24T04:20:53.758Z,9.30
2023-03-24T04:23:33.625Z,9.20
2023-03-24T04:26:11.954Z,9.40
2023-03-24T04:28:52.391Z,9.30
2023-03-24T04:31:30.174Z,9.20
2023-03-24T04:34:06.038Z,9.30
2023-03-24T04:36:43.132Z,9.20
2023-03-24T04:39:34.313Z,9.20
2023-03-24T04:42:13.279Z,9.30
2023-03-24T04:44:44.226Z,9.20
2023-03-24T04:47:48.425Z,9.30
2023-03-24T04:50:46.292Z,9.30
2023-03-24T04:53:21.107Z,9.30
2023-03-24T04:56:01.495Z,9.30
2023-03-24T04:58:53.199Z,9.30
2023-03-24T05:01:23.550Z,9.30
2023-03-24T05:04:13.796Z,9.30
2023-03-24T05:06:46.922Z,9.50
2023-03-24T05:09:34.343Z,9.40
2023-03-24T05:12:05.560Z,9.30
2023-03-24T05:14:47.318Z,9.30
2023-03-24T05:17:17.380Z,9.40
2023-03-24T05:19:47.257Z,9.40
2023-03-24T05:22:20.154Z,9.30
2023-03-24T05:24:50.945Z,9.30
2023-03-24T05:27:21.112Z,9.20
2023-03-24T05:29:50.995Z,9.30
2023-03-24T05:32:26.596Z,9.30
2023-03-24T05:34:56.784Z,9.20
2023-03-24T05:37:35.658Z,9.30
2023-03-24T05:40:07.888Z,9.20
2023-03-24T05:42:53.348Z,9.30
2023-03-24T05:45:25.651Z,9.40
2023-03-24T05:47:56.688Z,9.20
2023-03-24T05:50:39.022Z,9.20
2023-03-24T05:53:11.959Z,9.30
2023-03-24T05:56:02.119Z,9.20
2023-03-24T05:58:53.094Z,9.30
2023-03-24T06:01:23.458Z,9.30
2023-03-24T06:04:00.214Z,9.30
2023-03-24T06:06:30.203Z,9.50
2023-03-24T06:09:02.836Z,9.30
2023-03-24T06:11:34.901Z,9.40
2023-03-24T06:14:10.267Z,9.30
2023-03-24T06:16:51.881Z,9.30
2023-03-24T06:19:24.947Z,9.40
2023-03-24T06:22:15.711Z,9.40
2023-03-24T06:24:50.267Z,9.40
2023-03-24T06:27:22.110Z,9.40
2023-03-24T06:29:52.143Z,9.40
2023-03-24T06:32:22.933Z,9.40
2023-03-24T06:34:53.245Z,9.40
2023-03-24T06:37:36.394Z,9.40
2023-03-24T06:40:15.413Z,9.50
2023-03-24T06:42:52.448Z,9.40
2023-03-24T06:45:22.532Z,9.50
2023-03-24T06:47:56.300Z,9.40
2023-03-24T06:50:33.157Z,9.50
2023-03-24T06:53:05.182Z,9.40
2023-03-24T06:55:40.020Z,9.60
2023-03-24T06:58:11.778Z,9.50
2023-03-24T07:01:03.490Z,9.50
2023-03-24T07:03:45.008Z,9.50
2023-03-24T07:06:40.233Z,9.50
2023-03-24T07:09:20.927Z,9.50
2023-03-24T07:11:53.411Z,9.50
2023-03-24T07:14:26.404Z,9.50
2023-03-24T07:16:57.428Z,9.50
2023-03-24T07:19:45.877Z,9.90
2023-03-24T07:22:35.818Z,9.60
2023-03-24T07:25:25.876Z,9.60
2023-03-24T07:28:05.334Z,9.60
2023-03-24T07:30:40.583Z,9.60
2023-03-24T07:33:13.043Z,9.60
2023-03-24T07:35:46.277Z,9.60
2023-03-24T07:38:16.820Z,9.60
2023-03-24T07:40:48.355Z,9.60
2023-03-24T07:43:22.802Z,9.60
2023-03-24T07:46:19.116Z,9.60
2023-03-24T07:48:49.605Z,9.60
2023-03-24T07:51:21.199Z,9.10
2023-03-24T07:53:53.601Z,9.30
2023-03-24T07:56:31.004Z,9.30
2023-03-24T07:59:05.843Z,9.20
2023-03-24T08:02:02.468Z,9.00
2023-03-24T08:04:43.072Z,8.90
2023-03-24T08:07:41.448Z,8.90
2023-03-24T08:10:14.056Z,8.90
2023-03-24T08:12:44.665Z,8.90
2023-03-24T08:15:17.787Z,8.90
2023-03-24T08:17:48.120Z,8.90
2023-03-24T08:20:19.268Z,9.00
2023-03-24T08:22:54.397Z,8.90
2023-03-24T08:25:27.526Z,8.90
2023-03-24T08:27:57.924Z,9.10
2023-03-24T08:30:31.032Z,9.10
2023-03-24T08:33:03.651Z,9.20
2023-03-24T08:35:39.080Z,9.20
2023-03-24T08:38:09.891Z,9.30
2023-03-24T08:40:41.578Z,9.40
2023-03-24T08:43:15.710Z,9.50
2023-03-24T08:45:48.357Z,9.60
2023-03-24T08:48:18.433Z,10.00
2023-03-24T08:50:48.360Z,9.90
2023-03-24T08:53:18.233Z,9.90
2023-03-24T08:55:50.642Z,9.80
2023-03-24T08:58:23.208Z,9.70
2023-03-24T09:00:55.675Z,9.70
2023-03-24T09:03:26.587Z,9.60
2023-03-24T09:06:01.205Z,9.70
2023-03-24T09:08:32.133Z,9.70
2023-03-24T09:11:02.362Z,9.70
2023-03-24T09:13:32.283Z,9.60
2023-03-24T09:16:06.636Z,9.50
2023-03-24T09:18:37.487Z,9.60
2023-03-24T09:21:08.074Z,9.80
2023-03-24T09:23:39.653Z,9.70
2023-03-24T09:26:09.858Z,10.10
2023-03-24T09:28:40.023Z,10.00
2023-03-24T09:31:13.623Z,10.00
2023-03-24T09:33:43.678Z,9.90
2023-03-24T09:36:14.399Z,9.90
2023-03-24T09:38:44.805Z,9.90
2023-03-24T09:41:21.195Z,9.80
2023-03-24T09:43:56.924Z,9.80
2023-03-24T09:46:34.784Z,9.80
2023-03-24T09:49:06.547Z,9.80
2023-03-24T09:51:40.022Z,9.70
2023-03-24T09:54:19.095Z,9.70
2023-03-24T09:56:51.758Z,9.60
2023-03-24T09:59:23.927Z,9.60
2023-03-24T10:01:56.736Z,9.60
2023-03-24T10:04:32.317Z,9.50
2023-03-24T10:07:09.278Z,9.60
2023-03-24T10:09:42.769Z,9.70
2023-03-24T10:12:28.098Z,9.70
2023-03-24T10:15:08.512Z,9.90
2023-03-24T10:17:51.289Z,10.00
2023-03-24T10:20:31.613Z,10.00
2023-03-24T10:23:07.070Z,10.20
2023-03-24T10:25:51.407Z,10.10
2023-03-24T10:28:23.946Z,10.10
2023-03-24T10:30:56.470Z,10.10
2023-03-24T10:33:29.306Z,10.00
2023-03-24T10:36:07.780Z,9.90
2023-03-24T10:38:38.494Z,9.80
2023-03-24T10:41:09.046Z,9.80
2023-03-24T10:43:39.630Z,9.70
2023-03-24T10:46:10.075Z,9.70
2023-03-24T10:48:48.460Z,9.70
2023-03-24T10:51:20.056Z,9.70
2023-03-24T10:53:52.326Z,9.90
2023-03-24T10:56:41.504Z,10.10
2023-03-24T10:59:25.675Z,10.50
2023-03-24T11:02:02.901Z,10.70
2023-03-24T11:04:36.206Z,10.70
2023-03-24T11:07:09.703Z,10.60
2023-03-24T11:09:44.058Z,10.60
2023-03-24T11:12:25.269Z,10.60
2023-03-24T11:15:07.533Z,10.60
2023-03-24T11:17:48.829Z,10.60
2023-03-24T11:20:27.964Z,10.60
2023-03-24T11:23:04.882Z,10.60
2023-03-24T11:25:38.162Z,10.70
2023-03-24T11:28:11.621Z,11.00
2023-03-24T11:30:49.722Z,11.10
2023-03-24T11:33:35.776Z,11.00
2023-03-24T11:36:33.120Z,11.30
2023-03-24T11:39:05.470Z,11.60
2023-03-24T11:41:35.469Z,11.30
2023-03-24T11:44:19.848Z,11.20
2023-03-24T11:46:54.287Z,11.10
2023-03-24T11:49:28.741Z,10.90
2023-03-24T11:52:01.622Z,10.80
2023-03-24T11:54:36.980Z,10.80
2023-03-24T11:57:10.807Z,10.80
2023-03-24T11:59:45.752Z,10.80
2023-03-24T12:02:39.807Z,10.80
2023-03-24T12:05:24.528Z,10.70
2023-03-24T12:08:19.927Z,10.80
2023-03-24T12:11:05.987Z,10.70
2023-03-24T12:13:39.159Z,10.60
2023-03-24T12:16:29.825Z,10.50
2023-03-24T12:19:28.220Z,10.40
2023-03-24T12:22:10.685Z,10.30
2023-03-24T12:25:08.245Z,10.20
2023-03-24T12:27:46.977Z,10.10
2023-03-24T12:30:26.003Z,10.10
2023-03-24T12:33:16.292Z,10.10
2023-03-24T12:36:06.590Z,10.00
2023-03-24T12:38:49.275Z,10.00
2023-03-24T12:41:53.403Z,10.20
2023-03-24T12:44:40.815Z,10.30
2023-03-24T12:47:21.973Z,10.50
2023-03-24T12:50:15.854Z,10.50
2023-03-24T12:53:08.155Z,10.50
2023-03-24T12:55:46.334Z,10.50
2023-03-24T12:58:26.340Z,10.70
2023-03-24T13:01:07.732Z,10.70
2023-03-24T13:03:43.284Z,10.90
2023-03-24T13:06:20.548Z,11.20
2023-03-24T13:09:05.138Z,11.30
2023-03-24T13:11:42.994Z,11.20
2023-03-24T13:14:22.132Z,11.30
2023-03-24T13:16:53.665Z,11.60
2023-03-24T13:19:27.918Z,12.10
2023-03-24T13:21:59.309Z,11.60
2023-03-24T13:24:30.154Z,11.70
2023-03-24T13:27:08.435Z,12.00
2023-03-24T13:30:15.860Z,12.10
2023-03-24T13:32:50.955Z,12.10
2023-03-24T13:35:31.951Z,12.30
2023-03-24T13:38:08.111Z,11.90
2023-03-24T13:40:42.960Z,12.00
2023-03-24T13:43:15.889Z,12.00
2023-03-24T13:45:51.836Z,12.00
2023-03-24T13:48:32.382Z,11.80
2023-03-24T13:51:05.976Z,11.50
2023-03-24T13:53:42.569Z,11.60
2023-03-24T13:56:14.481Z,11.60
2023-03-24T13:59:10.853Z,11.30
2023-03-24T14:01:49.314Z,11.10
2023-03-24T14:04:31.415Z,11.00
2023-03-24T14:07:02.273Z,11.00
2023-03-24T14:09:34.462Z,10.90
2023-03-24T14:12:29.654Z,10.90
2023-03-24T14:15:18.553Z,10.90
2023-03-24T14:17:52.660Z,10.90
2023-03-24T14:20:41.822Z,10.80
2023-03-24T14:23:26.019Z,11.30
2023-03-24T14:25:57.737Z,11.80
2023-03-24T14:28:33.004Z,11.80
2023-03-24T14:31:13.495Z,11.60
2023-03-24T14:34:02.531Z,11.30
2023-03-24T14:36:39.719Z,11.20
2023-03-24T14:39:22.487Z,11.20
2023-03-24T14:41:52.860Z,11.20
2023-03-24T14:44:54.014Z,11.50
2023-03-24T14:47:26.502Z,12.00
2023-03-24T14:50:04.009Z,11.80
2023-03-24T14:52:40.047Z,11.70
2023-03-24T14:55:16.777Z,11.50
2023-03-24T14:57:49.129Z,11.30
2023-03-24T15:00:24.137Z,11.10
2023-03-24T15:02:55.912Z,11.00
2023-03-24T15:05:32.774Z,10.90
2023-03-24T15:08:13.210Z,10.90
2023-03-24T15:10:47.961Z,10.90
2023-03-24T15:13:31.644Z,10.90
2023-03-24T15:16:02.869Z,10.90
2023-03-24T15:18:33.127Z,10.90
2023-03-24T15:21:17.240Z,10.90
2023-03-24T15:23:50.953Z,11.00
2023-03-24T15:26:24.969Z,10.90
2023-03-24T15:28:59.976Z,10.90
2023-03-24T15:31:33.003Z,10.80
2023-03-24T15:34:08.422Z,10.80
2023-03-24T15:36:45.494Z,11.20
2023-03-24T15:39:23.186Z,11.70
2023-03-24T15:41:55.380Z,11.80
2023-03-24T15:44:31.599Z,11.90
2023-03-24T15:47:02.996Z,12.00
2023-03-24T15:49:35.935Z,12.00
2023-03-24T15:52:28.087Z,12.20
2023-03-24T15:55:01.464Z,12.20
2023-03-24T15:57:39.963Z,12.10
2023-03-24T16:00:16.692Z,11.80
2023-03-24T16:02:52.465Z,11.60
2023-03-24T16:05:24.792Z,11.60
2023-03-24T16:08:03.762Z,11.60
2023-03-24T16:10:40.269Z,11.60
2023-03-24T16:13:17.818Z,11.40
2023-03-24T16:15:50.521Z,11.30
2023-03-24T16:18:24.685Z,11.10
2023-03-24T16:20:54.976Z,10.90
2023-03-24T16:23:27.852Z,10.80
2023-03-24T16:25:58.439Z,10.90
2023-03-24T16:28:28.359Z,10.80
2023-03-24T16:31:02.719Z,10.80
2023-03-24T16:33:33.187Z,10.70
2023-03-24T16:36:03.524Z,10.70
2023-03-24T16:38:36.555Z,10.50
2023-03-24T16:41:07.576Z,10.50
2023-03-24T16:43:37.604Z,10.40
2023-03-24T16:46:09.563Z,10.50
2023-03-24T16:48:39.537Z,10.40
2023-03-24T16:51:13.405Z,10.40
2023-03-24T16:53:47.333Z,10.10
2023-03-24T16:56:20.168Z,9.60
2023-03-24T16:58:52.403Z,9.40
2023-03-24T17:01:29.902Z,9.40
2023-03-24T17:04:01.917Z,9.40
2023-03-24T17:06:33.992Z,9.30
2023-03-24T17:09:08.588Z,9.10
2023-03-24T17:11:40.634Z,9.00
2023-03-24T17:14:12.644Z,8.80
2023-03-24T17:16:46.257Z,8.70
2023-03-24T17:19:17.567Z,8.70
2023-03-24T17:21:52.182Z,8.70
2023-03-24T17:24:25.698Z,8.70
2023-03-24T17:26:55.716Z,8.60
2023-03-24T17:29:25.693Z,8.50
2023-03-24T17:31:56.746Z,8.60
2023-03-24T17:34:26.711Z,8.80
2023-03-24T17:36:56.815Z,8.40
2023-03-24T17:39:29.495Z,8.10
2023-03-24T17:42:02.209Z,8.10
2023-03-24T17:44:32.207Z,8.20
2023-03-24T17:47:02.224Z,7.90
2023-03-24T17:49:33.529Z,7.80
2023-03-24T17:52:03.670Z,7.70
2023-03-24T17:54:36.326Z,7.60
2023-03-24T17:57:07.552Z,7.50
2023-03-24T17:59:38.075Z,7.50
2023-03-24T18:02:08.759Z,7.30
2023-03-24T18:04:38.904Z,7.00
2023-03-24T18:07:09.800Z,7.00
2023-03-24T18:09:42.837Z,6.80
2023-03-24T18:12:14.060Z,6.80
2023-03-24T18:14:44.848Z,6.50
2023-03-24T18:17:15.876Z,6.60
2023-03-24T18:19:45.877Z,6.70
2023-03-24T18:22:16.510Z,6.70
2023-03-24T18:24:49.277Z,6.50
2023-03-24T18:27:19.705Z,6.60
2023-03-24T18:29:49.704Z,6.70
2023-03-24T18:32:19.617Z,6.60
2023-03-24T18:34:49.484Z,6.60
2023-03-24T18:37:19.736Z,6.70
2023-03-24T18:39:52.215Z,6.70
2023-03-24T18:42:22.105Z,6.70
2023-03-24T18:44:52.065Z,7.00
2023-03-24T18:47:23.078Z,6.80
2023-03-24T18:49:53.012Z,7.20
2023-03-24T18:52:22.962Z,7.00
2023-03-24T18:54:56.099Z,7.20
2023-03-24T18:57:26.461Z,6.90
2023-03-24T18:59:56.443Z,6.90
2023-03-24T19:02:26.795Z,7.00
2023-03-24T19:04:56.686Z,7.00
2023-03-24T19:07:28.142Z,7.00
2023-03-24T19:10:00.915Z,6.90
2023-03-24T19:12:30.897Z,6.90
2023-03-24T19:15:01.726Z,6.80
2023-03-24T19:17:32.227Z,6.80
2023-03-24T19:20:07.992Z,6.80
2023-03-24T19:22:38.256Z,6.90
2023-03-24T19:25:11.432Z,6.90
2023-03-24T19:27:41.784Z,6.80
2023-03-24T19:30:13.429Z,6.80
2023-03-24T19:32:43.809Z,6.80
2023-03-24T19:35:13.896Z,6.90
2023-03-24T19:37:43.959Z,7.00
2023-03-24T19:40:16.831Z,7.10
2023-03-24T19:42:46.888Z,7.20
2023-03-24T19:45:18.502Z,7.10
2023-03-24T19:47:49.437Z,7.00
2023-03-24T19:50:20.648Z,7.00
2023-03-24T19:52:50.639Z,6.90
2023-03-24T19:55:23.184Z,6.90
2023-03-24T19:57:53.369Z,6.80
2023-03-24T20:00:23.648Z,6.90
2023-03-24T20:02:53.970Z,6.80
2023-03-24T20:05:27.088Z,6.70
2023-03-24T20:07:59.725Z,6.70
2023-03-24T20:10:32.843Z,6.60
2023-03-24T20:13:03.067Z,6.60
2023-03-24T20:15:33.081Z,6.50
2023-03-24T20:18:03.114Z,6.50
2023-03-24T20:20:33.142Z,6.50
2023-03-24T20:23:03.221Z,6.40
2023-03-24T20:25:35.709Z,6.40
2023-03-24T20:28:05.786Z,6.30
2023-03-24T20:30:35.742Z,6.30
2023-03-24T20:33:06.232Z,6.40
2023-03-24T20:35:36.823Z,6.30
2023-03-24T20:38:07.227Z,6.30
2023-03-24T20:40:40.521Z,6.20
2023-03-24T20:43:10.745Z,6.30
2023-03-24T20:45:40.996Z,6.40
2023-03-24T20:48:11.193Z,6.10
2023-03-24T20:50:41.190Z,6.10
2023-03-24T20:53:12.823Z,5.90
2023-03-24T20:55:49.211Z,5.90
2023-03-24T20:58:20.231Z,6.10
2023-03-24T21:00:52.121Z,5.90
2023-03-24T21:03:22.243Z,5.80
2023-03-24T21:06:54.448Z,5.90
2023-03-24T21:09:42.765Z,5.80
2023-03-24T21:12:28.302Z,5.70
2023-03-24T21:15:17.342Z,5.80
2023-03-24T21:18:02.794Z,5.80
2023-03-24T21:23:42.117Z,5.90
2023-03-24T21:26:15.858Z,5.90
2023-03-24T21:28:49.470Z,5.90
2023-03-24T21:31:22.101Z,5.80
2023-03-24T21:33:54.504Z,5.80
2023-03-24T21:36:25.109Z,5.90
2023-03-24T21:38:55.825Z,5.90
2023-03-24T21:41:26.450Z,6.00
2023-03-24T21:44:00.765Z,6.00
2023-03-24T21:46:32.262Z,6.10
2023-03-24T21:49:02.604Z,6.10
2023-03-24T21:51:37.022Z,6.20
2023-03-24T21:54:09.854Z,6.20
2023-03-24T21:56:40.663Z,6.10
2023-03-24T21:59:14.112Z,6.30
2023-03-24T22:01:44.146Z,6.50
2023-03-24T22:04:15.892Z,6.70
2023-03-24T22:06:47.834Z,6.50
2023-03-24T22:09:19.270Z,6.50
2023-03-24T22:11:49.555Z,6.40
2023-03-24T22:14:22.071Z,6.80
2023-03-24T22:16:52.386Z,6.50
2023-03-24T22:19:22.552Z,6.40
2023-03-24T22:21:57.384Z,6.50
2023-03-24T22:24:29.264Z,6.50
2023-03-24T22:27:01.490Z,6.40
2023-03-24T22:29:33.951Z,6.50
2023-03-24T22:32:04.412Z,6.50
2023-03-24T22:34:34.377Z,6.70
2023-03-24T22:37:04.852Z,6.30
2023-03-24T22:39:34.724Z,6.20
2023-03-24T22:42:04.923Z,6.20
2023-03-24T22:44:37.494Z,6.20
2023-03-24T22:47:07.544Z,6.30
2023-03-24T22:49:39.429Z,6.20
2023-03-24T22:52:10.247Z,6.20
2023-03-24T22:54:40.469Z,6.20
2023-03-24T22:57:11.037Z,6.20
2023-03-24T22:59:43.576Z,6.20
2023-03-24T23:02:13.553Z,6.20
2023-03-24T23:04:47.176Z,6.20
2023-03-24T23:07:17.732Z,6.00
2023-03-24T23:09:48.055Z,6.40
2023-03-24T23:12:18.179Z,6.50
2023-03-24T23:14:54.487Z,6.10
2023-03-24T23:17:26.106Z,6.30
2023-03-24T23:19:56.596Z,6.30
2023-03-24T23:22:26.913Z,6.40
2023-03-24T23:25:00.749Z,6.30
2023-03-24T23:27:36.524Z,6.30
2023-03-24T23:30:13.081Z,6.40
2023-03-24T23:32:44.046Z,6.50
2023-03-24T23:35:14.364Z,6.40
2023-03-24T23:37:44.759Z,6.50
2023-03-24T23:40:17.170Z,6.50
2023-03-24T23:42:49.076Z,6.50
2023-03-24T23:45:22.801Z,6.50
2023-03-24T23:47:54.610Z,6.50
2023-03-24T23:50:24.514Z,6.40
2023-03-24T23:52:55.286Z,6.40
2023-03-24T23:55:26.831Z,6.70
2023-03-24T23:57:57.737Z,6.40
